Time;durP1;ratioP1;P1;durP2;ratioP2;P2;SDS_P1;SDS_P2;PMS_P1;PMS_P2;Temp;Humidity;BMP_temperature;BMP_pressure;BME280_temperature;BME280_humidity;BME280_pressure;Samples;Min_cycle;Max_cycle;Signal;HPM_P1;HPM_P2
2021/01/11 00:00:16;;;;;;;14.35;11.77;;;6.50;75.30;;;;;;5048524;28;20029;-72
2021/01/11 00:02:42;;;;;;;16.45;11.02;;;6.50;75.30;;;;;;5048752;28;20041;-73
2021/01/11 00:05:09;;;;;;;16.73;12.20;;;6.50;75.30;;;;;;5048352;28;20051;-73
2021/01/11 00:07:35;;;;;;;14.95;11.38;;;6.50;75.30;;;;;;5030695;28;20029;-75
2021/01/11 00:10:02;;;;;;;14.80;12.27;;;6.50;75.40;;;;;;5046483;28;20037;-74
2021/01/11 00:12:28;;;;;;;15.70;11.95;;;6.50;75.40;;;;;;5047370;28;20029;-74
2021/01/11 00:14:54;;;;;;;16.20;11.90;;;6.50;75.40;;;;;;5046828;28;20393;-74
2021/01/11 00:17:20;;;;;;;12.80;10.82;;;6.50;75.50;;;;;;5030140;28;20046;-74
2021/01/11 00:19:46;;;;;;;16.35;12.30;;;6.50;75.40;;;;;;5045890;28;20132;-74
2021/01/11 00:22:11;;;;;;;12.48;10.68;;;6.50;75.40;;;;;;5047333;28;20339;-75
2021/01/11 00:24:37;;;;;;;11.38;10.23;;;6.50;75.40;;;;;;5047989;28;20123;-75
2021/01/11 00:27:03;;;;;;;14.65;10.48;;;6.50;75.40;;;;;;5047784;28;20025;-75
2021/01/11 00:29:29;;;;;;;11.98;10.75;;;6.50;75.40;;;;;;5046596;28;20040;-75
2021/01/11 00:31:58;;;;;;;10.75;9.65;;;6.50;75.40;;;;;;5046456;28;20036;-75
2021/01/11 00:34:24;;;;;;;12.98;10.77;;;6.50;75.50;;;;;;5030138;28;20047;-74
2021/01/11 00:36:58;;;;;;;14.40;10.93;;;6.50;75.40;;;;;;5046243;28;20044;-74
2021/01/11 00:39:25;;;;;;;11.25;9.80;;;6.50;75.50;;;;;;5046439;28;20032;-74
2021/01/11 00:41:59;;;;;;;11.40;9.50;;;6.50;75.40;;;;;;5047596;28;20121;-74
2021/01/11 00:44:26;;;;;;;11.20;9.90;;;6.50;75.40;;;;;;5046337;28;20208;-75
2021/01/11 00:46:52;;;;;;;14.07;9.30;;;6.50;75.40;;;;;;5046433;28;20040;-75
2021/01/11 00:49:18;;;;;;;13.73;9.40;;;6.60;75.60;;;;;;5045718;28;20049;-75
2021/01/11 00:51:46;;;;;;;12.15;9.45;;;6.50;75.40;;;;;;5029556;28;20128;-74
2021/01/11 00:54:13;;;;;;;10.90;8.38;;;6.60;75.60;;;;;;5046152;28;20047;-75
2021/01/11 00:56:39;;;;;;;9.85;8.85;;;6.60;75.60;;;;;;5029618;28;20106;-75
2021/01/11 00:59:13;;;;;;;12.25;9.18;;;6.60;75.60;;;;;;5030319;28;20082;-76
2021/01/11 01:01:50;;;;;;;8.95;7.85;;;6.60;75.60;;;;;;5030400;28;20036;-75
2021/01/11 01:04:19;;;;;;;10.90;8.23;;;6.60;75.60;;;;;;5045533;28;20029;-74
2021/01/11 01:06:45;;;;;;;7.85;7.03;;;6.60;75.60;;;;;;5046007;28;20055;-74
2021/01/11 01:09:11;;;;;;;12.93;7.93;;;6.60;75.60;;;;;;5045943;28;20039;-75
2021/01/11 01:11:39;;;;;;;9.20;7.60;;;6.60;75.60;;;;;;5047436;28;20025;-75
2021/01/11 01:14:05;;;;;;;9.88;6.53;;;6.60;75.60;;;;;;5047224;28;20040;-75
2021/01/11 01:16:32;;;;;;;8.88;7.70;;;6.60;75.60;;;;;;5046258;28;20487;-76
2021/01/11 01:18:58;;;;;;;9.38;6.82;;;6.60;75.60;;;;;;5046983;28;20025;-75
2021/01/11 01:21:24;;;;;;;9.43;6.90;;;6.60;75.60;;;;;;5045609;28;20472;-76
2021/01/11 01:23:50;;;;;;;9.27;6.80;;;6.60;75.70;;;;;;5028839;28;20128;-75
2021/01/11 01:26:16;;;;;;;8.73;7.03;;;6.60;75.70;;;;;;5045785;28;20050;-74
2021/01/11 01:28:42;;;;;;;9.52;6.50;;;6.60;75.60;;;;;;5028880;28;20075;-74
2021/01/11 01:31:08;;;;;;;8.18;7.13;;;6.60;75.70;;;;;;5045124;28;20361;-73
2021/01/11 01:33:34;;;;;;;7.45;6.25;;;6.60;75.70;;;;;;5028790;28;20048;-73
2021/01/11 01:36:00;;;;;;;7.90;6.20;;;6.60;75.70;;;;;;5046699;28;20029;-74
2021/01/11 01:38:26;;;;;;;8.07;6.60;;;6.60;75.70;;;;;;5044793;28;20033;-74
2021/01/11 01:40:52;;;;;;;8.18;6.47;;;6.60;75.60;;;;;;5045383;28;20025;-75
2021/01/11 01:43:18;;;;;;;8.13;6.20;;;6.60;75.60;;;;;;5047120;28;20082;-75
2021/01/11 01:45:44;;;;;;;7.43;5.90;;;6.60;75.60;;;;;;5046065;28;20040;-74
2021/01/11 01:48:10;;;;;;;6.43;5.45;;;6.60;75.60;;;;;;5046020;28;20080;-74
2021/01/11 01:50:37;;;;;;;8.25;5.60;;;6.60;75.70;;;;;;5044502;28;20032;-74
2021/01/11 01:53:03;;;;;;;7.05;6.05;;;6.60;75.60;;;;;;5045160;28;20033;-75
2021/01/11 01:55:29;;;;;;;6.50;5.00;;;6.70;75.80;;;;;;5046375;28;20120;-74
2021/01/11 01:57:58;;;;;;;6.10;5.47;;;6.60;75.70;;;;;;5046679;28;20040;-75
2021/01/11 02:00:24;;;;;;;8.55;5.88;;;6.70;75.80;;;;;;5045841;28;20040;-74
2021/01/11 02:02:51;;;;;;;7.60;5.43;;;6.60;75.70;;;;;;5044924;28;20061;-75
2021/01/11 02:05:16;;;;;;;7.25;5.60;;;6.60;75.70;;;;;;5045484;28;20065;-76
2021/01/11 02:08:08;;;;;;;7.32;5.22;;;6.70;75.90;;;;;;5045237;28;20538;-75
2021/01/11 02:10:54;;;;;;;5.60;4.78;;;6.60;75.70;;;;;;5027581;28;20068;-74
2021/01/11 02:13:27;;;;;;;8.07;4.93;;;6.70;75.90;;;;;;5044286;28;20477;-75
2021/01/11 02:15:56;;;;;;;8.27;4.47;;;6.60;75.70;;;;;;5045669;28;20059;-75
2021/01/11 02:18:56;;;;;;;4.72;4.32;;;6.70;75.90;;;;;;5027786;28;20037;-75
2021/01/11 02:21:44;;;;;;;6.07;4.25;;;6.70;75.90;;;;;;5044855;28;20021;-76
2021/01/11 02:24:42;;;;;;;8.60;4.78;;;6.70;75.90;;;;;;5044331;28;20063;-76
2021/01/11 02:27:14;;;;;;;6.63;4.43;;;6.70;75.80;;;;;;5044388;28;20025;-75
2021/01/11 02:30:04;;;;;;;6.13;4.38;;;6.70;75.80;;;;;;5044347;28;20143;-75
2021/01/11 02:32:32;;;;;;;5.38;3.83;;;6.70;75.80;;;;;;5046408;28;20119;-75
2021/01/11 02:35:02;;;;;;;6.07;4.13;;;6.70;75.80;;;;;;5045837;28;20041;-74
2021/01/11 02:37:31;;;;;;;4.60;3.65;;;6.70;75.80;;;;;;5045852;28;20028;-75
2021/01/11 02:39:57;;;;;;;4.60;4.05;;;6.70;75.80;;;;;;5046696;28;20448;-75
2021/01/11 02:42:23;;;;;;;5.15;3.83;;;6.70;75.80;;;;;;5045630;28;20597;-77
2021/01/11 02:44:49;;;;;;;4.13;3.72;;;6.70;75.80;;;;;;5046006;28;20032;-75
2021/01/11 02:47:24;;;;;;;7.05;3.92;;;6.80;76.00;;;;;;5049373;28;20037;-74
2021/01/11 02:49:57;;;;;;;5.57;4.05;;;6.70;75.80;;;;;;5048385;28;20346;-75
2021/01/11 02:52:46;;;;;;;4.43;3.22;;;6.70;75.80;;;;;;5049967;28;20094;-76
2021/01/11 02:55:32;;;;;;;4.45;3.50;;;6.80;76.00;;;;;;5048652;28;20636;-74
2021/01/11 02:58:10;;;;;;;5.28;3.70;;;6.70;75.80;;;;;;5050607;28;20031;-75
2021/01/11 03:00:40;;;;;;;4.25;3.28;;;6.70;75.80;;;;;;5048531;28;20032;-74
2021/01/11 03:03:08;;;;;;;4.97;3.35;;;6.70;75.80;;;;;;5049759;28;20033;-74
2021/01/11 03:05:36;;;;;;;3.72;3.20;;;6.80;76.00;;;;;;5050172;28;20094;-74
2021/01/11 03:08:02;;;;;;;3.60;3.05;;;6.80;76.00;;;;;;5050404;28;20036;-75
2021/01/11 03:10:28;;;;;;;3.55;2.72;;;6.80;76.00;;;;;;5064885;28;20031;-75
2021/01/11 03:12:53;;;;;;;3.83;3.42;;;6.80;76.00;;;;;;5048434;28;20493;-74
2021/01/11 03:15:19;;;;;;;3.95;2.95;;;6.80;76.00;;;;;;5049377;28;20071;-74
2021/01/11 03:17:45;;;;;;;4.68;3.03;;;6.80;76.00;;;;;;5049747;28;20098;-74
2021/01/11 03:20:13;;;;;;;4.18;3.08;;;6.80;76.00;;;;;;5047957;28;20039;-74
2021/01/11 03:22:39;;;;;;;3.33;3.00;;;6.80;76.00;;;;;;5048128;28;20037;-74
2021/01/11 03:25:06;;;;;;;3.88;3.00;;;6.80;76.00;;;;;;5048569;28;20393;-75
2021/01/11 03:27:32;;;;;;;6.45;3.42;;;6.80;76.00;;;;;;5081123;28;20476;-75
2021/01/11 03:29:58;;;;;;;3.60;3.10;;;6.90;76.20;;;;;;5064754;28;20202;-75
2021/01/11 03:32:24;;;;;;;2.92;2.58;;;6.80;76.00;;;;;;5048308;28;20692;-77
2021/01/11 03:34:50;;;;;;;4.70;2.80;;;6.90;76.20;;;;;;5081328;28;20108;-75
2021/01/11 03:37:17;;;;;;;3.90;2.45;;;6.90;76.20;;;;;;5064700;28;20091;-74
2021/01/11 03:39:44;;;;;;;4.78;2.60;;;6.90;76.20;;;;;;5049430;28;20097;-74
2021/01/11 03:42:10;;;;;;;3.42;2.97;;;6.80;76.00;;;;;;5049949;28;20116;-75
2021/01/11 03:44:36;;;;;;;4.22;2.80;;;6.90;76.20;;;;;;5048006;28;20382;-75
2021/01/11 03:47:02;;;;;;;2.85;2.50;;;6.90;76.20;;;;;;5047728;28;20051;-76
2021/01/11 03:49:28;;;;;;;3.83;2.35;;;6.90;76.10;;;;;;5048616;28;20605;-74
2021/01/11 03:52:00;;;;;;;4.65;2.65;;;6.90;76.10;;;;;;5031514;28;20071;-76
2021/01/11 03:54:27;;;;;;;4.07;2.85;;;6.90;76.10;;;;;;5047941;28;20061;-75
2021/01/11 03:56:53;;;;;;;3.90;2.38;;;6.90;76.10;;;;;;5049404;28;20495;-75
2021/01/11 03:59:19;;;;;;;5.32;2.47;;;6.90;76.10;;;;;;5049296;28;20052;-75
2021/01/11 04:01:45;;;;;;;2.92;2.42;;;6.90;76.10;;;;;;5049357;28;20025;-77
2021/01/11 04:04:11;;;;;;;4.65;2.80;;;6.90;76.10;;;;;;5049402;28;20123;-75
2021/01/11 04:06:37;;;;;;;4.07;2.22;;;6.90;76.10;;;;;;5047459;28;20516;-74
2021/01/11 04:09:03;;;;;;;2.88;2.58;;;6.90;76.10;;;;;;5049075;28;20028;-74
2021/01/11 04:11:29;;;;;;;3.17;2.20;;;6.90;76.10;;;;;;5048875;28;20040;-75
2021/01/11 04:13:55;;;;;;;3.13;2.20;;;6.90;76.10;;;;;;5049182;28;20064;-74
2021/01/11 04:16:21;;;;;;;3.47;2.28;;;6.90;76.10;;;;;;5048786;28;20021;-75
2021/01/11 04:18:49;;;;;;;3.80;2.40;;;6.90;76.10;;;;;;5047115;28;20060;-74
2021/01/11 04:21:16;;;;;;;2.80;2.22;;;6.90;76.10;;;;;;5049161;28;20497;-74
2021/01/11 04:23:42;;;;;;;7.07;2.17;;;6.90;76.10;;;;;;5049426;28;20055;-74
2021/01/11 04:26:09;;;;;;;3.60;2.47;;;6.90;76.10;;;;;;5048840;28;20067;-73
2021/01/11 04:28:35;;;;;;;5.38;3.47;;;6.90;76.10;;;;;;5048733;28;20057;-74
2021/01/11 04:31:02;;;;;;;1.65;1.50;;;7.00;76.20;;;;;;5049064;28;20500;-74
2021/01/11 04:33:28;;;;;;;3.22;2.08;;;7.00;76.20;;;;;;5047064;28;20033;-74
2021/01/11 04:35:54;;;;;;;2.85;2.00;;;7.00;76.20;;;;;;5047377;28;20024;-74
2021/01/11 04:38:19;;;;;;;3.83;2.38;;;7.00;76.20;;;;;;5048984;28;20025;-75
2021/01/11 04:40:45;;;;;;;5.18;2.10;;;7.00;76.20;;;;;;5050972;28;20176;-74
2021/01/11 04:43:12;;;;;;;2.85;2.10;;;7.00;76.20;;;;;;5050880;28;20119;-75
2021/01/11 04:45:38;;;;;;;3.00;2.15;;;7.00;76.20;;;;;;5051343;28;20665;-74
2021/01/11 04:48:05;;;;;;;2.47;2.10;;;7.00;76.20;;;;;;5034061;28;20041;-74
2021/01/11 04:50:31;;;;;;;3.83;2.50;;;7.00;76.20;;;;;;5050537;28;20044;-74
2021/01/11 04:52:57;;;;;;;4.00;2.35;;;7.00;76.30;;;;;;5034684;28;20044;-74
2021/01/11 04:55:23;;;;;;;2.03;1.80;;;7.00;76.30;;;;;;5052194;28;20029;-74
2021/01/11 04:57:56;;;;;;;3.75;2.20;;;7.00;76.30;;;;;;5052264;28;20029;-75
2021/01/11 05:00:30;;;;;;;3.47;1.57;;;7.00;76.30;;;;;;5050867;28;20025;-74
2021/01/11 05:02:58;;;;;;;4.90;1.75;;;7.00;76.30;;;;;;5050578;28;20450;-75
2021/01/11 05:05:25;;;;;;;4.47;1.80;;;7.00;76.30;;;;;;5050683;28;20557;-74
2021/01/11 05:07:51;;;;;;;4.25;1.85;;;7.00;76.30;;;;;;5051894;28;20497;-74
2021/01/11 05:10:28;;;;;;;3.20;1.85;;;7.00;76.30;;;;;;5033780;28;20112;-75
2021/01/11 05:12:56;;;;;;;3.58;2.08;;;7.00;76.30;;;;;;5051938;28;20091;-75
2021/01/11 05:15:23;;;;;;;3.80;1.80;;;7.00;76.30;;;;;;5051442;28;20396;-75
2021/01/11 05:17:49;;;;;;;3.70;2.03;;;7.00;76.30;;;;;;5050368;28;20059;-74
2021/01/11 05:20:19;;;;;;;3.88;1.90;;;7.00;76.30;;;;;;5032928;28;20128;-75
2021/01/11 05:22:48;;;;;;;3.70;1.88;;;7.00;76.30;;;;;;5050502;28;20352;-74
2021/01/11 05:25:18;;;;;;;4.10;1.90;;;7.00;76.80;;;;;;5050437;28;20538;-74
2021/01/11 05:27:45;;;;;;;3.35;1.65;;;7.00;76.30;;;;;;5050199;28;20461;-75
2021/01/11 05:30:42;;;;;;;2.83;2.00;;;7.00;76.30;;;;;;5033723;28;20504;-75
2021/01/11 05:33:15;;;;;;;2.70;2.20;;;7.00;76.30;;;;;;5044059;28;20071;-74
2021/01/11 05:35:41;;;;;;;3.65;2.10;;;7.00;76.30;;;;;;5050001;28;20124;-74
2021/01/11 05:38:19;;;;;;;5.28;2.03;;;7.00;76.30;;;;;;5051503;28;20029;-74
2021/01/11 05:40:46;;;;;;;3.42;2.45;;;7.00;76.30;;;;;;5051353;28;20032;-74
2021/01/11 05:43:20;;;;;;;4.57;1.98;;;7.00;76.30;;;;;;5051422;28;20051;-73
2021/01/11 05:45:47;;;;;;;3.33;1.70;;;7.00;76.30;;;;;;5050738;28;20432;-74
2021/01/11 05:48:14;;;;;;;5.40;2.05;;;7.00;76.30;;;;;;5037892;28;20582;-74
2021/01/11 05:50:51;;;;;;;2.60;1.48;;;6.90;76.10;;;;;;5027147;28;20033;-74
2021/01/11 05:53:21;;;;;;;3.10;1.88;;;7.00;76.40;;;;;;5026752;28;20107;-74
2021/01/11 05:55:49;;;;;;;2.50;1.80;;;7.00;76.40;;;;;;5028041;28;20099;-73
2021/01/11 05:58:17;;;;;;;4.25;2.13;;;7.00;76.30;;;;;;5034133;28;20437;-74
2021/01/11 06:00:43;;;;;;;5.15;2.33;;;7.00;76.40;;;;;;5047294;28;20028;-75
2021/01/11 06:03:11;;;;;;;6.55;3.05;;;7.00;76.30;;;;;;5024423;28;20033;-73
2021/01/11 06:05:37;;;;;;;1.98;1.75;;;7.00;76.40;;;;;;5008208;28;20033;-72
2021/01/11 06:08:05;;;;;;;2.17;1.90;;;7.00;76.30;;;;;;5029377;28;20413;-74
2021/01/11 06:10:32;;;;;;;4.10;2.03;;;7.00;76.30;;;;;;5044753;28;20069;-74
2021/01/11 06:12:58;;;;;;;3.70;1.90;;;7.00;76.30;;;;;;5044011;28;20040;-75
2021/01/11 06:15:26;;;;;;;2.78;1.98;;;7.00;76.30;;;;;;5043731;28;20033;-75
2021/01/11 06:17:54;;;;;;;4.05;1.80;;;7.00;76.30;;;;;;5044201;28;20037;-73
2021/01/11 06:20:29;;;;;;;5.93;2.50;;;7.00;76.30;;;;;;5026727;28;20291;-77
2021/01/11 06:22:58;;;;;;;4.07;2.22;;;7.10;76.60;;;;;;5043485;28;20039;-77
2021/01/11 06:25:24;;;;;;;4.35;2.55;;;7.10;76.80;;;;;;5029625;28;20028;-76
2021/01/11 06:27:58;;;;;;;7.85;2.92;;;7.30;77.30;;;;;;5061544;28;20057;-77
2021/01/11 06:30:33;;;;;;;4.78;2.92;;;7.40;77.30;;;;;;5043117;28;20207;-74
2021/01/11 06:33:06;;;;;;;5.70;2.97;;;7.40;77.20;;;;;;5043679;28;20029;-75
2021/01/11 06:35:39;;;;;;;4.63;2.20;;;7.50;77.30;;;;;;5043794;28;20037;-75
2021/01/11 06:38:09;;;;;;;7.93;3.20;;;7.50;77.20;;;;;;5044008;28;20523;-75
2021/01/11 06:40:36;;;;;;;5.60;3.25;;;7.50;77.30;;;;;;5045472;28;20033;-74
2021/01/11 06:43:03;;;;;;;5.82;2.92;;;7.50;77.30;;;;;;5045079;28;20512;-74
2021/01/11 06:45:39;;;;;;;4.20;2.50;;;7.50;77.80;;;;;;5044594;28;20291;-76
2021/01/11 06:48:07;;;;;;;4.50;2.03;;;7.50;77.40;;;;;;5043627;28;20124;-74
2021/01/11 06:50:34;;;;;;;6.45;2.92;;;7.60;77.60;;;;;;5043426;28;20053;-73
2021/01/11 06:53:02;;;;;;;4.45;2.40;;;7.50;77.40;;;;;;5043237;28;20507;-74
2021/01/11 06:55:29;;;;;;;4.72;2.72;;;7.60;77.60;;;;;;5043434;28;20048;-76
2021/01/11 06:57:57;;;;;;;5.20;2.72;;;7.50;77.50;;;;;;5045104;28;20025;-74
2021/01/11 07:00:34;;;;;;;4.55;2.15;;;7.60;77.70;;;;;;5042625;28;20040;-74
2021/01/11 07:03:03;;;;;;;7.85;3.60;;;7.60;77.80;;;;;;5043854;28;20390;-73
2021/01/11 07:05:37;;;;;;;4.60;2.33;;;7.60;77.70;;;;;;5045339;28;20028;-74
2021/01/11 07:08:18;;;;;;;5.55;2.33;;;7.60;78.00;;;;;;5044554;28;20051;-73
2021/01/11 07:10:46;;;;;;;7.57;2.13;;;7.60;78.10;;;;;;5042942;28;20123;-75
2021/01/11 07:13:18;;;;;;;9.32;2.78;;;7.70;78.20;;;;;;5043554;28;20092;-74
2021/01/11 07:15:53;;;;;;;6.28;2.78;;;7.70;78.20;;;;;;5042333;28;20438;-74
2021/01/11 07:18:37;;;;;;;6.40;2.70;;;7.70;78.30;;;;;;5044340;28;20025;-76
2021/01/11 07:21:16;;;;;;;6.30;2.22;;;7.80;78.40;;;;;;5044138;28;20123;-73
2021/01/11 07:23:43;;;;;;;6.25;2.13;;;7.80;78.30;;;;;;5044098;28;20504;-74
2021/01/11 07:26:17;;;;;;;4.30;2.45;;;7.80;78.30;;;;;;5043495;28;20041;-75
2021/01/11 07:29:11;;;;;;;7.03;2.30;;;7.80;78.30;;;;;;5043086;28;20448;-74
2021/01/11 07:31:47;;;;;;;7.05;2.45;;;7.80;78.40;;;;;;5040513;28;20083;-73
2021/01/11 07:34:18;;;;;;;8.07;2.83;;;7.80;78.40;;;;;;5042758;28;20128;-77
2021/01/11 07:36:45;;;;;;;4.63;2.20;;;7.80;78.30;;;;;;5042881;28;20499;-74
2021/01/11 07:39:27;;;;;;;4.95;1.95;;;7.90;78.60;;;;;;5043138;28;20151;-74
2021/01/11 07:41:57;;;;;;;14.25;3.38;;;7.90;78.60;;;;;;5044198;28;20060;-73
2021/01/11 07:44:34;;;;;;;7.00;2.33;;;7.90;78.60;;;;;;5043183;28;20025;-74
2021/01/11 07:47:20;;;;;;;8.23;2.60;;;7.90;78.60;;;;;;5042997;28;20128;-74
2021/01/11 07:49:50;;;;;;;5.55;2.58;;;7.90;78.70;;;;;;5042025;28;20076;-74
2021/01/11 07:52:19;;;;;;;3.40;1.85;;;7.90;78.60;;;;;;5042213;28;20033;-74
2021/01/11 07:54:55;;;;;;;7.68;2.40;;;7.90;79.10;;;;;;5043103;28;20049;-74
2021/01/11 07:57:25;;;;;;;7.45;2.47;;;8.00;78.90;;;;;;5043091;28;20052;-74
2021/01/11 08:00:16;;;;;;;6.53;3.13;;;7.90;78.60;;;;;;5042113;28;20175;-74
2021/01/11 08:02:46;;;;;;;3.78;2.25;;;8.00;78.90;;;;;;5025755;28;20025;-74
2021/01/11 08:05:21;;;;;;;5.88;1.95;;;8.00;78.90;;;;;;5043369;28;20140;-74
2021/01/11 08:08:03;;;;;;;9.07;2.47;;;8.00;78.90;;;;;;5044458;28;20040;-73
2021/01/11 08:10:31;;;;;;;5.38;2.22;;;8.00;78.90;;;;;;5042940;28;20116;-75
2021/01/11 08:13:07;;;;;;;5.53;2.38;;;8.00;78.90;;;;;;5042080;28;20178;-74
2021/01/11 08:15:33;;;;;;;7.88;2.53;;;8.10;79.30;;;;;;5029775;28;20033;-70
2021/01/11 08:18:02;;;;;;;5.97;2.42;;;8.20;79.60;;;;;;5048039;28;20444;-73
2021/01/11 08:20:28;;;;;;;4.40;2.45;;;8.30;79.90;;;;;;5045716;28;20033;-72
2021/01/11 08:22:54;;;;;;;4.68;2.28;;;8.40;80.10;;;;;;5046289;28;20037;-70
2021/01/11 08:25:20;;;;;;;4.03;2.30;;;8.50;80.20;;;;;;5045728;28;20158;-70
2021/01/11 08:27:49;;;;;;;3.15;2.00;;;8.70;80.50;;;;;;5046408;28;20033;-72
2021/01/11 08:30:19;;;;;;;4.68;2.60;;;8.80;80.60;;;;;;5045983;28;20029;-70
2021/01/11 08:32:47;;;;;;;3.28;1.80;;;9.00;80.80;;;;;;5046445;28;20269;-71
2021/01/11 08:35:15;;;;;;;5.15;2.22;;;9.00;80.80;;;;;;5047432;28;20501;-69
2021/01/11 08:37:42;;;;;;;5.32;2.00;;;9.20;81.00;;;;;;5029941;28;20171;-70
2021/01/11 08:40:09;;;;;;;9.20;2.47;;;9.30;81.10;;;;;;5046810;28;20083;-71
2021/01/11 08:42:36;;;;;;;7.75;2.67;;;9.40;81.20;;;;;;5046239;28;20037;-70
2021/01/11 08:45:25;;;;;;;5.95;2.55;;;9.50;81.30;;;;;;5046057;28;20029;-70
2021/01/11 08:48:05;;;;;;;3.92;1.90;;;9.60;81.60;;;;;;5047202;28;20086;-70
2021/01/11 08:50:37;;;;;;;4.65;2.40;;;9.70;81.60;;;;;;5045914;28;20033;-69
2021/01/11 08:53:21;;;;;;;4.13;2.00;;;9.80;81.60;;;;;;5045301;28;20216;-73
2021/01/11 08:56:09;;;;;;;3.75;1.98;;;9.90;81.90;;;;;;5045748;28;20048;-71
2021/01/11 08:58:37;;;;;;;5.30;2.28;;;10.00;81.90;;;;;;5029227;28;20297;-71
2021/01/11 09:01:19;;;;;;;3.83;1.98;;;10.10;81.90;;;;;;5045658;28;20033;-71
2021/01/11 09:03:50;;;;;;;9.10;2.65;;;10.10;81.90;;;;;;5046713;28;20427;-71
2021/01/11 09:06:38;;;;;;;5.70;2.13;;;10.30;82.10;;;;;;5045814;28;20033;-70
2021/01/11 09:09:09;;;;;;;9.70;2.20;;;10.30;82.10;;;;;;5045597;28;20025;-71
2021/01/11 09:11:36;;;;;;;5.03;2.30;;;10.40;82.10;;;;;;5028713;28;20043;-75
2021/01/11 09:14:14;;;;;;;3.10;1.95;;;10.50;82.20;;;;;;5028387;28;20041;-77
2021/01/11 09:16:41;;;;;;;5.82;2.58;;;10.50;82.00;;;;;;5047150;28;20361;-74
2021/01/11 09:19:11;;;;;;;8.20;2.40;;;10.60;82.10;;;;;;5028612;28;20086;-76
2021/01/11 09:21:41;;;;;;;5.70;2.28;;;10.60;82.00;;;;;;5044597;28;20480;-75
2021/01/11 09:24:09;;;;;;;5.85;2.28;;;10.60;81.90;;;;;;5045168;28;20102;-75
2021/01/11 09:26:40;;;;;;;8.20;2.30;;;10.60;81.80;;;;;;5041315;28;20445;-74
2021/01/11 09:29:07;;;;;;;7.97;2.30;;;10.60;81.60;;;;;;5046080;28;20059;-75
2021/01/11 09:31:33;;;;;;;7.63;2.58;;;10.60;81.50;;;;;;5046523;28;20681;-76
2021/01/11 09:33:59;;;;;;;4.38;2.05;;;10.50;81.20;;;;;;5045062;28;20047;-77
2021/01/11 09:36:32;;;;;;;9.65;2.55;;;10.50;81.20;;;;;;5028610;28;20028;-75
2021/01/11 09:38:58;;;;;;;8.55;2.38;;;10.50;81.00;;;;;;5045220;28;20111;-75
2021/01/11 09:41:24;;;;;;;2.38;1.88;;;10.50;81.10;;;;;;5046006;28;20591;-75
2021/01/11 09:43:50;;;;;;;5.32;2.05;;;10.50;81.00;;;;;;5045371;28;20028;-75
2021/01/11 09:46:16;;;;;;;3.58;2.15;;;10.40;81.30;;;;;;5045956;28;20450;-74
2021/01/11 09:48:42;;;;;;;5.40;2.45;;;10.40;80.70;;;;;;5028059;28;20520;-75
2021/01/11 09:51:07;;;;;;;4.32;2.58;;;10.40;80.70;;;;;;5033426;28;20112;-73
2021/01/11 09:53:33;;;;;;;4.80;2.15;;;10.40;80.70;;;;;;5040799;28;20033;-73
2021/01/11 09:55:59;;;;;;;7.20;2.50;;;10.30;80.50;;;;;;5038101;28;20266;-73
2021/01/11 09:58:26;;;;;;;3.90;1.73;;;10.30;80.40;;;;;;5033737;28;20634;-74
2021/01/11 10:00:52;;;;;;;5.13;2.08;;;10.30;80.40;;;;;;5045900;28;20151;-74
2021/01/11 10:03:21;;;;;;;6.30;2.47;;;10.20;80.20;;;;;;5044175;28;20037;-75
2021/01/11 10:05:58;;;;;;;4.97;1.83;;;10.20;80.20;;;;;;5044100;28;20079;-74
2021/01/11 10:08:24;;;;;;;4.03;2.25;;;10.20;80.10;;;;;;5044280;28;20025;-74
2021/01/11 10:10:50;;;;;;;5.72;2.15;;;10.20;80.20;;;;;;5043635;28;20132;-73
2021/01/11 10:13:16;;;;;;;6.53;2.05;;;10.20;80.10;;;;;;5045396;28;20170;-75
2021/01/11 10:15:42;;;;;;;6.30;2.50;;;10.20;80.10;;;;;;5027241;28;20476;-74
2021/01/11 10:18:08;;;;;;;4.43;2.40;;;10.20;80.10;;;;;;5044766;28;20086;-75
2021/01/11 10:20:34;;;;;;;5.55;2.13;;;10.20;80.10;;;;;;5045111;28;20037;-74
2021/01/11 10:23:00;;;;;;;5.88;1.83;;;10.20;80.00;;;;;;5026413;28;20036;-74
2021/01/11 10:25:26;;;;;;;5.85;2.22;;;10.20;80.00;;;;;;5027397;28;20020;-74
2021/01/11 10:27:54;;;;;;;4.78;1.65;;;10.20;79.90;;;;;;5044598;28;20128;-76
2021/01/11 10:30:20;;;;;;;2.90;1.70;;;10.20;79.80;;;;;;5043855;28;20021;-75
2021/01/11 10:32:46;;;;;;;8.75;2.50;;;10.30;79.90;;;;;;5042747;28;20037;-76
2021/01/11 10:35:12;;;;;;;2.83;1.85;;;10.30;79.80;;;;;;5026806;28;20476;-75
2021/01/11 10:37:38;;;;;;;3.95;1.50;;;10.30;79.70;;;;;;5041595;28;20580;-76
2021/01/11 10:40:05;;;;;;;4.07;2.53;;;10.30;79.60;;;;;;5037009;28;20667;-75
2021/01/11 10:42:31;;;;;;;6.25;2.45;;;10.40;79.80;;;;;;5039430;28;20083;-75
2021/01/11 10:44:58;;;;;;;4.15;1.60;;;10.40;79.60;;;;;;5026887;28;20025;-75
2021/01/11 10:47:24;;;;;;;3.90;2.08;;;10.40;79.60;;;;;;5044667;28;20114;-77
2021/01/11 10:49:50;;;;;;;6.03;1.95;;;10.40;79.60;;;;;;5043076;28;20608;-77
2021/01/11 10:52:16;;;;;;;5.15;2.15;;;10.40;79.50;;;;;;5042804;28;20090;-79
2021/01/11 10:54:42;;;;;;;4.10;1.95;;;10.50;79.80;;;;;;5043217;28;20036;-77
2021/01/11 10:57:08;;;;;;;6.00;2.00;;;10.50;79.80;;;;;;5043366;28;20033;-76
2021/01/11 10:59:34;;;;;;;4.47;1.63;;;10.60;80.40;;;;;;5043041;28;20064;-77
2021/01/11 11:02:00;;;;;;;3.33;2.10;;;10.60;79.80;;;;;;5042666;28;20029;-76
2021/01/11 11:04:26;;;;;;;7.10;1.80;;;10.60;79.70;;;;;;5043272;28;20079;-78
2021/01/11 11:06:57;;;;;;;10.40;2.05;;;10.70;79.80;;;;;;5043207;28;20547;-77
2021/01/11 11:09:23;;;;;;;7.70;1.88;;;10.70;79.60;;;;;;5042978;28;20150;-75
2021/01/11 11:11:52;;;;;;;3.83;1.70;;;10.70;79.50;;;;;;5044086;28;20104;-77
2021/01/11 11:14:18;;;;;;;4.43;1.90;;;10.70;79.40;;;;;;5026614;28;20096;-76
2021/01/11 11:16:44;;;;;;;9.48;2.80;;;10.70;79.40;;;;;;5042565;28;20367;-75
2021/01/11 11:19:12;;;;;;;4.13;1.98;;;10.70;79.40;;;;;;5043012;28;20521;-75
2021/01/11 11:21:38;;;;;;;7.82;2.42;;;10.70;79.40;;;;;;5026444;28;20500;-77
2021/01/11 11:24:04;;;;;;;6.20;2.47;;;10.70;79.40;;;;;;5042944;28;20059;-77
2021/01/11 11:26:30;;;;;;;3.80;2.00;;;10.70;79.30;;;;;;5042655;28;20029;-78
2021/01/11 11:28:56;;;;;;;8.55;2.38;;;10.80;79.50;;;;;;5042945;28;20029;-78
2021/01/11 11:31:22;;;;;;;3.33;1.83;;;10.80;79.50;;;;;;5044963;28;20032;-78
2021/01/11 11:33:48;;;;;;;4.70;2.00;;;10.90;79.50;;;;;;5047142;28;20071;-78
2021/01/11 11:36:17;;;;;;;6.47;2.38;;;11.00;79.60;;;;;;5050530;28;20090;-77
2021/01/11 11:38:43;;;;;;;1.95;1.80;;;11.00;79.40;;;;;;5043572;28;20029;-79
2021/01/11 11:41:09;;;;;;;5.95;2.25;;;11.10;79.50;;;;;;5044264;28;20113;-77
2021/01/11 11:43:35;;;;;;;7.38;2.53;;;11.20;79.50;;;;;;5026107;28;20029;-77
2021/01/11 11:46:01;;;;;;;8.68;2.70;;;11.30;79.50;;;;;;5043982;28;20021;-77
2021/01/11 11:48:27;;;;;;;6.05;2.53;;;11.40;79.50;;;;;;5043526;28;20114;-77
2021/01/11 11:50:53;;;;;;;6.25;2.28;;;11.50;79.50;;;;;;5026113;28;20235;-77
2021/01/11 11:53:19;;;;;;;5.38;2.35;;;11.50;79.40;;;;;;5043520;28;20081;-77
2021/01/11 11:55:45;;;;;;;6.68;3.03;;;11.50;79.20;;;;;;5044029;28;20139;-77
2021/01/11 11:58:11;;;;;;;9.93;2.85;;;11.60;79.30;;;;;;5042439;28;20456;-77
2021/01/11 12:00:37;;;;;;;8.80;2.70;;;11.60;79.20;;;;;;5044199;28;20426;-77
2021/01/11 12:03:03;;;;;;;8.23;2.47;;;11.60;79.10;;;;;;5043789;28;20055;-78
2021/01/11 12:05:29;;;;;;;7.15;2.72;;;11.60;79.00;;;;;;5042684;28;20025;-77
2021/01/11 12:07:55;;;;;;;9.80;2.80;;;11.60;79.00;;;;;;5043455;28;20093;-76
2021/01/11 12:10:21;;;;;;;6.97;2.88;;;11.50;78.90;;;;;;5042098;28;20477;-76
2021/01/11 12:12:47;;;;;;;6.63;2.63;;;11.50;78.90;;;;;;5042499;28;20448;-76
2021/01/11 12:15:15;;;;;;;7.93;3.17;;;11.50;78.90;;;;;;5042148;28;20041;-76
2021/01/11 12:17:43;;;;;;;5.07;2.50;;;11.50;79.00;;;;;;5043722;28;20125;-76
2021/01/11 12:20:10;;;;;;;6.65;2.75;;;11.40;78.80;;;;;;5043852;28;20109;-74
2021/01/11 12:22:36;;;;;;;6.68;2.85;;;11.40;78.80;;;;;;5044145;28;20087;-77
2021/01/11 12:25:04;;;;;;;8.27;2.53;;;11.40;78.80;;;;;;5043999;28;20492;-76
2021/01/11 12:27:32;;;;;;;7.63;2.88;;;11.40;78.80;;;;;;5043921;28;20055;-75
2021/01/11 12:30:03;;;;;;;6.70;2.60;;;11.30;78.70;;;;;;5044078;28;20035;-75
2021/01/11 12:32:29;;;;;;;6.22;2.80;;;11.30;78.70;;;;;;5043004;28;20037;-73
2021/01/11 12:34:54;;;;;;;7.43;3.00;;;11.30;78.70;;;;;;5042334;28;20045;-74
2021/01/11 12:37:21;;;;;;;6.63;2.15;;;11.30;78.70;;;;;;5043531;28;20029;-75
2021/01/11 12:39:47;;;;;;;8.20;3.03;;;11.30;78.70;;;;;;5025752;28;20112;-76
2021/01/11 12:42:14;;;;;;;7.93;2.58;;;11.30;78.70;;;;;;5042250;28;20086;-76
2021/01/11 12:44:41;;;;;;;7.78;3.20;;;11.20;78.50;;;;;;5025453;28;20033;-76
2021/01/11 12:47:07;;;;;;;5.10;2.95;;;11.20;78.50;;;;;;5043763;28;20473;-77
2021/01/11 12:49:37;;;;;;;11.23;3.00;;;11.20;78.40;;;;;;5042154;28;20339;-74
2021/01/11 12:52:03;;;;;;;7.50;2.28;;;11.20;78.40;;;;;;5043431;28;20033;-75
2021/01/11 12:54:29;;;;;;;9.23;2.55;;;11.20;78.40;;;;;;5042598;28;20167;-75
2021/01/11 12:56:55;;;;;;;5.95;2.75;;;11.10;78.20;;;;;;5042173;28;20079;-75
2021/01/11 12:59:21;;;;;;;6.72;2.47;;;11.10;78.20;;;;;;5042035;28;20053;-77
2021/01/11 13:01:48;;;;;;;4.95;2.53;;;11.10;78.30;;;;;;5044129;28;20099;-75